Time;durP1;ratioP1;P1;durP2;ratioP2;P2;SDS_P1;SDS_P2;PMS_P1;PMS_P2;Temp;Humidity;BMP_temperature;BMP_pressure;BME280_temperature;BME280_humidity;BME280_pressure;Samples;Min_cycle;Max_cycle;Signal;HPM_P1;HPM_P2
2023/01/16 00:01:27;;;;;;;;;;;;;;;9.23;54.34;98705.72;4957419;28;6966;-72
2023/01/16 00:03:53;;;;;;;;;;;;;;;9.22;54.43;98702.31;4964735;28;6776;-73
2023/01/16 00:06:18;;;;;;;;;;;;;;;9.23;54.16;98680.16;4977453;28;7129;-72
2023/01/16 00:08:44;;;;;;;;;;;;;;;9.22;55.16;98692.06;4966043;28;8705;-72
2023/01/16 00:11:11;;;;;;;;;;;;;;;9.21;54.38;98697.13;4988854;28;6768;-73
2023/01/16 00:13:38;;;;;;;;;;;;;;;9.19;53.96;98697.13;4991847;28;7677;-73
2023/01/16 00:16:05;;;;;;;;;;;;;;;9.19;55.19;98678.34;4963969;28;6848;-72
2023/01/16 00:18:31;;;;;;;;;;;;;;;9.19;53.98;98680.91;4973747;28;6938;-72
2023/01/16 00:20:56;;;;;;;;;;;;;;;9.16;54.33;98674.88;4974998;28;7161;-73
2023/01/16 00:23:22;;;;;;;;;;;;;;;9.18;54.13;98682.59;4993667;28;6840;-72
2023/01/16 00:25:47;;;;;;;;;;;;;;;9.17;54.41;98678.28;4975421;28;6793;-72
2023/01/16 00:28:15;;;;;;;;;;;;;;;9.17;54.07;98679.19;4990310;28;6784;-73
2023/01/16 00:30:42;;;;;;;;;;;;;;;9.17;54.40;98685.97;4986484;28;6796;-72
2023/01/16 00:33:07;;;;;;;;;;;;;;;9.20;54.29;98672.41;4958340;28;6975;-72
2023/01/16 00:35:33;;;;;;;;;;;;;;;9.22;54.72;98666.50;4966429;28;7052;-72
2023/01/16 00:37:59;;;;;;;;;;;;;;;9.24;54.06;98662.28;4990595;28;6768;-72
2023/01/16 00:40:25;;;;;;;;;;;;;;;9.26;53.68;98647.84;4977206;28;7168;-72
2023/01/16 00:42:50;;;;;;;;;;;;;;;9.25;53.68;98641.00;4992332;28;6958;-72
2023/01/16 00:45:16;;;;;;;;;;;;;;;9.24;53.12;98631.63;4964424;28;6930;-73
2023/01/16 00:47:42;;;;;;;;;;;;;;;9.21;53.77;98630.69;4978058;28;6961;-73
2023/01/16 00:50:08;;;;;;;;;;;;;;;9.20;53.68;98629.81;4962830;28;6842;-72
2023/01/16 00:52:34;;;;;;;;;;;;;;;9.19;53.42;98630.66;4989001;28;8318;-72
2023/01/16 00:55:00;;;;;;;;;;;;;;;9.17;53.81;98625.50;4978996;28;7105;-72
2023/01/16 00:57:26;;;;;;;;;;;;;;;9.18;54.03;98623.81;4990735;28;6800;-73
2023/01/16 00:59:52;;;;;;;;;;;;;;;9.19;53.95;98607.66;4969975;28;6792;-72
2023/01/16 01:02:18;;;;;;;;;;;;;;;9.21;54.49;98595.75;4955272;28;7023;-72
2023/01/16 01:04:43;;;;;;;;;;;;;;;9.26;54.62;98595.88;4976352;28;6873;-72
2023/01/16 01:07:09;;;;;;;;;;;;;;;9.26;53.84;98586.50;4961503;28;6764;-72
2023/01/16 01:09:35;;;;;;;;;;;;;;;9.27;54.04;98580.59;4976429;28;7045;-72
2023/01/16 01:12:00;;;;;;;;;;;;;;;9.30;53.95;98583.22;4993702;28;7293;-73
2023/01/16 01:14:26;;;;;;;;;;;;;;;9.31;53.98;98578.94;4977892;28;7162;-72
2023/01/16 01:16:52;;;;;;;;;;;;;;;9.29;54.45;98573.81;4974821;28;6792;-72
2023/01/16 01:19:18;;;;;;;;;;;;;;;9.29;53.75;98558.47;4978003;28;7027;-72
2023/01/16 01:21:44;;;;;;;;;;;;;;;9.27;54.39;98555.03;4958336;28;6800;-72
2023/01/16 01:24:10;;;;;;;;;;;;;;;9.26;54.45;98548.16;4983259;28;6776;-72
2023/01/16 01:26:36;;;;;;;;;;;;;;;9.23;54.40;98542.97;4977013;28;6784;-72
2023/01/16 01:29:01;;;;;;;;;;;;;;;9.20;54.93;98532.69;4976547;28;6852;-72
2023/01/16 01:31:27;;;;;;;;;;;;;;;9.19;54.57;98530.09;4974178;28;6849;-72
2023/01/16 01:33:53;;;;;;;;;;;;;;;9.15;53.88;98529.16;4974468;28;7286;-73
2023/01/16 01:36:18;;;;;;;;;;;;;;;9.13;54.27;98520.59;4978853;28;7055;-72
2023/01/16 01:38:46;;;;;;;;;;;;;;;9.09;54.37;98518.81;4967645;28;7013;-72
2023/01/16 01:41:16;;;;;;;;;;;;;;;9.03;54.95;98515.25;4980827;28;6852;-73
2023/01/16 01:43:48;;;;;;;;;;;;;;;8.99;53.94;98508.34;4968400;28;7119;-72
2023/01/16 01:46:37;;;;;;;;;;;;;;;8.95;54.36;98501.44;4977427;28;6969;-72
2023/01/16 01:49:23;;;;;;;;;;;;;;;8.88;55.03;98494.44;4995895;28;7097;-72
2023/01/16 01:51:54;;;;;;;;;;;;;;;8.81;54.48;98488.31;4993270;28;6951;-73
2023/01/16 01:54:33;;;;;;;;;;;;;;;8.74;54.30;98482.19;4985360;28;7034;-72
2023/01/16 01:57:07;;;;;;;;;;;;;;;8.69;54.12;98476.13;4990918;28;6795;-72
2023/01/16 01:59:45;;;;;;;;;;;;;;;8.62;54.87;98469.13;4981499;28;7211;-72
2023/01/16 02:02:19;;;;;;;;;;;;;;;8.57;55.35;98463.03;4962342;28;6800;-73
2023/01/16 02:04:47;;;;;;;;;;;;;;;8.51;55.04;98456.09;4967667;28;7104;-73
2023/01/16 02:07:17;;;;;;;;;;;;;;;8.47;55.12;98449.16;4981188;28;7243;-73
2023/01/16 02:09:43;;;;;;;;;;;;;;;8.44;55.34;98452.50;4992834;28;7051;-73
2023/01/16 02:12:13;;;;;;;;;;;;;;;8.42;54.89;98438.84;4993312;28;6983;-73
2023/01/16 02:14:45;;;;;;;;;;;;;;;8.42;55.38;98436.28;4993460;28;8276;-73
2023/01/16 02:20:07;;;;;;;;;;;;;;;8.44;54.88;98434.63;4966857;28;7179;-73
2023/01/16 02:23:33;;;;;;;;;;;;;;;8.44;55.87;98426.97;4978910;28;7145;-73
2023/01/16 02:26:30;;;;;;;;;;;;;;;8.41;54.41;98416.69;4969880;28;6992;-72
2023/01/16 02:29:43;;;;;;;;;;;;;;;8.39;55.71;98405.56;4991645;28;8502;-72
2023/01/16 02:32:43;;;;;;;;;;;;;;;8.39;54.70;98403.00;4977534;28;7007;-72
2023/01/16 02:35:37;;;;;;;;;;;;;;;8.40;55.24;98398.78;4986881;28;8053;-72
2023/01/16 02:38:14;;;;;;;;;;;;;;;8.43;55.31;98380.97;4979346;28;7329;-72
2023/01/16 02:41:12;;;;;;;;;;;;;;;8.47;56.48;98375.13;4981394;28;6878;-72
2023/01/16 02:43:59;;;;;;;;;;;;;;;8.52;55.59;98357.41;4981564;28;7000;-72
2023/01/16 02:46:56;;;;;;;;;;;;;;;8.52;55.88;98354.84;4994074;28;6816;-72
2023/01/16 02:49:42;;;;;;;;;;;;;;;8.48;55.61;98339.41;4965169;28;7016;-72
2023/01/16 02:52:30;;;;;;;;;;;;;;;8.46;55.84;98333.41;4969764;28;7040;-72
2023/01/16 02:55:04;;;;;;;;;;;;;;;8.45;55.98;98329.13;4999915;28;6996;-72
2023/01/16 02:57:39;;;;;;;;;;;;;;;8.43;55.48;98317.13;4992126;28;6976;-72
2023/01/16 03:00:07;;;;;;;;;;;;;;;8.42;55.50;98313.75;4981098;28;7003;-72
2023/01/16 03:02:32;;;;;;;;;;;;;;;8.42;55.77;98306.09;4962785;28;6966;-72
2023/01/16 03:04:58;;;;;;;;;;;;;;;8.42;55.87;98297.53;4959859;28;6764;-73
2023/01/16 03:08:08;;;;;;;;;;;;;;;8.43;55.02;98289.06;4967708;28;7201;-72
2023/01/16 03:11:14;;;;;;;;;;;;;;;8.43;55.61;98282.28;4974537;28;7014;-72
2023/01/16 03:13:57;;;;;;;;;;;;;;;8.41;56.13;98276.28;4980173;28;7427;-72
2023/01/16 03:16:54;;;;;;;;;;;;;;;8.39;55.37;98264.31;4977816;28;6800;-73
2023/01/16 03:19:53;;;;;;;;;;;;;;;8.36;54.97;98261.69;4979107;28;6990;-72
2023/01/16 03:22:43;;;;;;;;;;;;;;;8.32;54.83;98253.09;4977945;28;7745;-72
2023/01/16 03:25:34;;;;;;;;;;;;;;;8.29;55.38;98248.78;4963523;28;6812;-73
2023/01/16 03:28:25;;;;;;;;;;;;;;;8.26;55.82;98237.63;4963042;28;6808;-73
2023/01/16 03:31:05;;;;;;;;;;;;;;;8.23;54.99;98230.75;4974792;28;6907;-73
2023/01/16 03:34:08;;;;;;;;;;;;;;;8.22;55.26;98223.09;4987818;28;6828;-73
2023/01/16 03:36:49;;;;;;;;;;;;;;;8.20;55.86;98198.38;4967499;28;6828;-73
2023/01/16 03:39:22;;;;;;;;;;;;;;;8.16;55.29;98191.50;4965446;28;6974;-73
2023/01/16 03:41:54;;;;;;;;;;;;;;;8.16;55.11;98196.59;4965193;28;6955;-73
2023/01/16 03:44:38;;;;;;;;;;;;;;;8.14;55.07;98192.28;5000277;28;7026;-73
2023/01/16 03:47:15;;;;;;;;;;;;;;;8.13;55.09;98180.34;4994211;28;6807;-73
2023/01/16 03:49:51;;;;;;;;;;;;;;;8.10;55.87;98168.38;4990565;28;6800;-73
2023/01/16 03:52:24;;;;;;;;;;;;;;;8.09;55.98;98153.91;4993657;28;7011;-73
2023/01/16 03:55:30;;;;;;;;;;;;;;;8.11;55.64;98147.16;4992450;28;8086;-73
2023/01/16 03:58:13;;;;;;;;;;;;;;;8.12;54.93;98132.72;4991255;28;7019;-73
2023/01/16 04:01:19;;;;;;;;;;;;;;;8.14;55.29;98126.81;4996082;28;7612;-73
2023/01/16 04:04:01;;;;;;;;;;;;;;;8.18;55.60;98118.38;4977551;28;6996;-73
2023/01/16 04:06:49;;;;;;;;;;;;;;;8.23;55.43;98094.66;4971166;28;7011;-73
2023/01/16 04:09:36;;;;;;;;;;;;;;;8.27;56.20;98086.22;4974443;28;6808;-73
2023/01/16 04:12:05;;;;;;;;;;;;;;;8.31;55.55;98081.22;4963153;28;7164;-73
2023/01/16 04:14:34;;;;;;;;;;;;;;;8.34;55.29;98076.16;4992509;28;7051;-73
2023/01/16 04:17:03;;;;;;;;;;;;;;;8.39;54.93;98070.31;4963475;28;6796;-73
2023/01/16 04:19:33;;;;;;;;;;;;;;;8.42;55.31;98055.91;4990378;28;7192;-73
2023/01/16 04:21:58;;;;;;;;;;;;;;;8.46;55.84;98052.56;4986622;28;7062;-73
2023/01/16 04:24:24;;;;;;;;;;;;;;;8.51;55.23;98047.59;4961896;28;6780;-73
2023/01/16 04:26:51;;;;;;;;;;;;;;;8.56;55.62;98045.13;4972435;28;7950;-73
2023/01/16 04:29:17;;;;;;;;;;;;;;;8.63;55.10;98031.63;4954853;28;8160;-73
2023/01/16 04:31:43;;;;;;;;;;;;;;;8.67;55.88;98027.44;4985432;28;7165;-73
2023/01/16 04:34:08;;;;;;;;;;;;;;;8.71;55.17;98016.44;4979500;28;6926;-73
2023/01/16 04:36:34;;;;;;;;;;;;;;;8.77;54.90;98008.00;4979451;28;6772;-73
2023/01/16 04:39:00;;;;;;;;;;;;;;;8.80;54.39;98001.25;4987898;28;7581;-73
2023/01/16 04:41:38;;;;;;;;;;;;;;;8.87;55.68;97997.13;4987217;28;6776;-72
2023/01/16 04:44:09;;;;;;;;;;;;;;;8.92;54.88;97976.75;4985501;28;7370;-73
2023/01/16 04:46:37;;;;;;;;;;;;;;;8.95;55.03;97975.09;4971447;28;9552;-73
2023/01/16 04:49:04;;;;;;;;;;;;;;;9.01;54.80;97961.56;4993107;28;6824;-73
2023/01/16 04:51:30;;;;;;;;;;;;;;;9.03;54.07;97947.13;4994012;28;7036;-73
2023/01/16 04:53:56;;;;;;;;;;;;;;;9.03;55.04;97940.31;4961076;28;6776;-73
2023/01/16 04:56:22;;;;;;;;;;;;;;;9.05;54.56;97930.13;4965977;28;6867;-73
2023/01/16 04:58:49;;;;;;;;;;;;;;;9.06;55.01;97925.84;4983568;28;6856;-73
2023/01/16 05:01:17;;;;;;;;;;;;;;;9.05;54.17;97914.78;4972258;28;7432;-73
2023/01/16 05:03:42;;;;;;;;;;;;;;;9.05;53.68;97908.81;4990026;28;6886;-73
2023/01/16 05:06:08;;;;;;;;;;;;;;;9.05;54.29;97894.34;4962963;28;6941;-75
2023/01/16 05:08:34;;;;;;;;;;;;;;;9.05;53.59;97889.25;4955584;28;7633;-73
2023/01/16 05:11:01;;;;;;;;;;;;;;;9.06;54.71;97879.88;4956353;28;7095;-73
2023/01/16 05:13:28;;;;;;;;;;;;;;;9.07;54.22;97885.00;4979031;28;6843;-73
2023/01/16 05:15:54;;;;;;;;;;;;;;;9.08;53.59;97875.63;4993501;28;6784;-73
2023/01/16 05:18:19;;;;;;;;;;;;;;;9.07;54.43;97868.81;4959841;28;6952;-73
2023/01/16 05:20:45;;;;;;;;;;;;;;;9.07;54.03;97856.03;4987757;28;7071;-73
2023/01/16 05:23:10;;;;;;;;;;;;;;;9.06;53.86;97849.19;4993590;28;6944;-73
2023/01/16 05:25:37;;;;;;;;;;;;;;;9.06;54.04;97842.41;4967527;28;8106;-73
2023/01/16 05:28:03;;;;;;;;;;;;;;;9.07;53.83;97818.56;4985632;28;6978;-73
2023/01/16 05:30:29;;;;;;;;;;;;;;;9.07;54.82;97805.78;4991455;28;6984;-73
2023/01/16 05:32:55;;;;;;;;;;;;;;;9.08;53.92;97815.19;4945039;28;7141;-73
2023/01/16 05:35:21;;;;;;;;;;;;;;;9.08;54.72;97807.50;4964971;28;6959;-73
2023/01/16 05:37:47;;;;;;;;;;;;;;;9.10;54.24;97800.72;4965692;28;6973;-73
2023/01/16 05:40:13;;;;;;;;;;;;;;;9.11;54.44;97801.59;4977958;28;7921;-73
2023/01/16 05:42:43;;;;;;;;;;;;;;;9.11;54.55;97781.13;4978140;28;6880;-73
2023/01/16 05:45:09;;;;;;;;;;;;;;;9.14;54.83;97781.16;4973467;28;6789;-73
2023/01/16 05:47:36;;;;;;;;;;;;;;;9.16;54.55;97766.69;4966554;28;6793;-73
2023/01/16 05:50:02;;;;;;;;;;;;;;;9.21;54.42;97757.41;4958939;28;7465;-73
2023/01/16 05:52:28;;;;;;;;;;;;;;;9.27;54.08;97751.50;4975475;28;6796;-73
2023/01/16 05:54:55;;;;;;;;;;;;;;;9.33;54.56;97741.34;4994756;28;6842;-73
2023/01/16 05:57:22;;;;;;;;;;;;;;;9.38;54.45;97729.47;4993482;28;8315;-73
2023/01/16 05:59:51;;;;;;;;;;;;;;;9.45;53.97;97721.00;4962894;28;8070;-73
2023/01/16 06:02:19;;;;;;;;;;;;;;;9.53;54.74;97703.19;4966939;28;7056;-73
2023/01/16 06:04:44;;;;;;;;;;;;;;;9.60;53.92;97696.41;4960698;28;6843;-74
2023/01/16 06:07:11;;;;;;;;;;;;;;;9.66;54.12;97683.69;4982358;28;6780;-73
2023/01/16 06:09:37;;;;;;;;;;;;;;;9.73;53.65;97682.03;4969797;28;6852;-73
2023/01/16 06:12:03;;;;;;;;;;;;;;;9.79;54.06;97671.84;4997529;28;7027;-73
2023/01/16 06:14:28;;;;;;;;;;;;;;;9.84;53.47;97675.28;4968878;28;6834;-73
2023/01/16 06:16:54;;;;;;;;;;;;;;;9.88;53.55;97662.53;4976172;28;7206;-73
2023/01/16 06:19:20;;;;;;;;;;;;;;;9.92;53.71;97654.88;4946231;28;7253;-73
2023/01/16 06:21:45;;;;;;;;;;;;;;;9.96;53.71;97648.09;4968017;28;6776;-73
2023/01/16 06:24:11;;;;;;;;;;;;;;;9.98;53.01;97643.81;4989079;28;6768;-73
2023/01/16 06:26:37;;;;;;;;;;;;;;;10.00;53.21;97630.22;4978791;28;7266;-73
2023/01/16 06:29:02;;;;;;;;;;;;;;;10.04;53.38;97625.94;4983503;28;7302;-73
2023/01/16 06:31:28;;;;;;;;;;;;;;;10.06;53.38;97616.59;4963839;28;7202;-73
2023/01/16 06:33:54;;;;;;;;;;;;;;;10.10;52.79;97605.50;4979817;28;7133;-73
2023/01/16 06:36:20;;;;;;;;;;;;;;;10.15;52.89;97605.53;4969366;28;6939;-73
2023/01/16 06:38:45;;;;;;;;;;;;;;;10.20;53.48;97597.88;4994482;28;6994;-73
2023/01/16 06:41:11;;;;;;;;;;;;;;;10.24;53.13;97589.38;4980623;28;6769;-74
2023/01/16 06:43:37;;;;;;;;;;;;;;;10.27;53.17;97574.84;4965795;28;8807;-73
2023/01/16 06:46:03;;;;;;;;;;;;;;;10.31;52.54;97554.41;4985746;28;7063;-73
2023/01/16 06:48:28;;;;;;;;;;;;;;;10.33;52.61;97552.69;4970089;28;6903;-73
2023/01/16 06:50:54;;;;;;;;;;;;;;;10.34;51.97;97551.84;4998092;28;7139;-73
2023/01/16 06:53:20;;;;;;;;;;;;;;;10.35;52.32;97546.75;4997312;28;6951;-73
2023/01/16 06:55:46;;;;;;;;;;;;;;;10.39;52.27;97547.59;4996469;28;6784;-73
2023/01/16 06:58:11;;;;;;;;;;;;;;;10.39;52.17;97535.66;4982771;28;6772;-73
2023/01/16 07:00:38;;;;;;;;;;;;;;;10.38;52.11;97520.28;4994219;28;6903;-73
2023/01/16 07:03:04;;;;;;;;;;;;;;;10.36;52.02;97519.41;4996420;28;6972;-73
2023/01/16 07:05:31;;;;;;;;;;;;;;;10.31;51.99;97503.22;4993916;28;6979;-73
2023/01/16 07:07:57;;;;;;;;;;;;;;;10.24;52.59;97490.38;4979502;28;7350;-73
2023/01/16 07:10:24;;;;;;;;;;;;;;;10.19;52.92;97483.53;4994749;28;6978;-73
2023/01/16 07:12:52;;;;;;;;;;;;;;;10.13;52.34;97474.97;4954909;28;7198;-73
2023/01/16 07:23:50;;;;;;;;;;;;;;;9.98;53.59;97439.13;4970827;28;6800;-73
2023/01/16 07:26:19;;;;;;;;;;;;;;;9.95;53.08;97451.94;4988765;28;7127;-73
2023/01/16 07:28:47;;;;;;;;;;;;;;;9.93;53.88;97446.78;4969534;28;6869;-73
2023/01/16 07:31:14;;;;;;;;;;;;;;;9.91;52.90;97434.84;4967727;28;7318;-73
2023/01/16 07:33:39;;;;;;;;;;;;;;;9.86;53.90;97425.47;4967279;28;8146;-73
2023/01/16 07:36:05;;;;;;;;;;;;;;;9.82;53.27;97412.66;4968135;28;6971;-73
2023/01/16 07:38:31;;;;;;;;;;;;;;;9.79;53.19;97408.38;4987798;28;6949;-73
2023/01/16 07:40:56;;;;;;;;;;;;;;;9.76;53.78;97408.38;4981763;28;6925;-73
2023/01/16 07:43:22;;;;;;;;;;;;;;;9.72;53.36;97391.31;4959047;28;6984;-73
2023/01/16 07:45:52;;;;;;;;;;;;;;;9.67;53.40;97395.56;4969839;28;6979;-73
2023/01/16 07:48:24;;;;;;;;;;;;;;;9.63;54.19;97374.25;4993586;28;6808;-73
2023/01/16 07:50:59;;;;;;;;;;;;;;;9.57;54.48;97364.84;4978095;28;7002;-73
2023/01/16 07:53:28;;;;;;;;;;;;;;;9.54;53.92;97369.09;4981071;28;6788;-73
2023/01/16 07:55:57;;;;;;;;;;;;;;;9.49;53.41;97356.28;4993078;28;8055;-73
2023/01/16 07:58:23;;;;;;;;;;;;;;;9.47;53.86;97349.47;4966280;28;6812;-73
2023/01/16 08:00:52;;;;;;;;;;;;;;;9.43;53.66;97354.56;4951836;28;9195;-73
2023/01/16 08:03:18;;;;;;;;;;;;;;;9.39;53.53;97349.44;4993869;28;6788;-73
2023/01/16 08:05:44;;;;;;;;;;;;;;;9.35;54.68;97345.16;4989372;28;8014;-73
2023/01/16 08:08:13;;;;;;;;;;;;;;;9.30;54.85;97340.88;4963558;28;7309;-72
2023/01/16 08:10:39;;;;;;;;;;;;;;;9.27;53.94;97351.09;4968374;28;6935;-73
2023/01/16 08:13:04;;;;;;;;;;;;;;;9.24;54.69;97338.28;4976004;28;7262;-73
2023/01/16 08:15:30;;;;;;;;;;;;;;;9.23;54.15;97321.25;4944432;28;6960;-72
2023/01/16 08:17:56;;;;;;;;;;;;;;;9.23;55.10;97323.81;4960083;28;6780;-73
2023/01/16 08:20:22;;;;;;;;;;;;;;;9.26;54.68;97325.53;4988258;28;7327;-73
2023/01/16 08:22:49;;;;;;;;;;;;;;;9.27;55.42;97312.78;4992794;28;6824;-73
2023/01/16 08:25:18;;;;;;;;;;;;;;;9.28;54.96;97304.25;4962197;28;6948;-73
2023/01/16 08:27:44;;;;;;;;;;;;;;;9.30;54.26;97307.66;4963610;28;6796;-73
2023/01/16 08:30:11;;;;;;;;;;;;;;;9.31;54.66;97296.59;4962072;28;7052;-73
2023/01/16 08:32:37;;;;;;;;;;;;;;;9.35;54.86;97292.34;4965567;28;8771;-73
2023/01/16 08:35:04;;;;;;;;;;;;;;;9.41;54.78;97294.06;4978364;28;7043;-73
2023/01/16 08:37:31;;;;;;;;;;;;;;;9.43;54.13;97280.44;4991902;28;6784;-73
2023/01/16 08:39:57;;;;;;;;;;;;;;;9.46;54.55;97277.00;4993133;28;6852;-74
2023/01/16 08:53:33;;;;;;;;;;;;;;;9.66;53.90;97255.78;4991829;28;6804;-73
2023/01/16 08:55:58;;;;;;;;;;;;;;;9.70;53.76;97258.28;4996621;28;7200;-73
2023/01/16 08:58:24;;;;;;;;;;;;;;;9.74;52.92;97246.38;4977876;28;7121;-73
2023/01/16 09:00:50;;;;;;;;;;;;;;;9.75;53.21;97245.50;4967875;28;7027;-76
2023/01/16 09:03:18;;;;;;;;;;;;;;;9.78;53.42;97242.97;4962851;28;6785;-74
2023/01/16 09:05:44;;;;;;;;;;;;;;;9.81;53.36;97237.84;4974167;28;7400;-73
2023/01/16 09:08:10;;;;;;;;;;;;;;;9.84;52.79;97240.41;4975473;28;6941;-73
2023/01/16 09:10:37;;;;;;;;;;;;;;;9.84;53.07;97240.41;4985386;28;7759;-73
2023/01/16 09:15:47;;;;;;;;;;;;;;;9.83;52.58;97227.63;4992214;28;8052;-73
2023/01/16 09:18:13;;;;;;;;;;;;;;;9.84;52.87;97214.00;4993450;28;6776;-73
2023/01/16 09:20:39;;;;;;;;;;;;;;;9.86;52.13;97220.81;4966666;28;6788;-74
2023/01/16 09:23:05;;;;;;;;;;;;;;;9.85;52.26;97216.56;4982908;28;7113;-73
2023/01/16 09:25:32;;;;;;;;;;;;;;;9.84;51.77;97217.38;4992499;28;6776;-73
2023/01/16 09:27:59;;;;;;;;;;;;;;;9.88;51.68;97212.28;4966483;28;6988;-73
2023/01/16 09:30:27;;;;;;;;;;;;;;;9.91;52.42;97218.25;4963924;28;7373;-73
2023/01/16 09:32:52;;;;;;;;;;;;;;;9.94;52.20;97209.72;4996300;28;6816;-73
2023/01/16 09:35:18;;;;;;;;;;;;;;;9.95;51.79;97203.75;4981317;28;7130;-73
2023/01/16 09:37:45;;;;;;;;;;;;;;;9.98;51.43;97206.31;4983215;28;7193;-73
2023/01/16 09:40:17;;;;;;;;;;;;;;;9.99;52.04;97190.09;4954519;28;7173;-73
2023/01/16 09:45:49;;;;;;;;;;;;;;;10.04;52.06;97175.56;4983118;28;6922;-73
2023/01/16 09:48:29;;;;;;;;;;;;;;;10.09;51.92;97176.44;4968045;28;7019;-73
2023/01/16 09:51:03;;;;;;;;;;;;;;;10.12;51.58;97171.31;4969982;28;6816;-73
2023/01/16 09:59:38;;;;;;;;;;;;;;;10.20;50.99;97175.56;4974537;28;6808;-73
2023/01/16 10:02:07;;;;;;;;;;;;;;;10.25;51.51;97169.56;4995216;28;6787;-73
2023/01/16 10:04:33;;;;;;;;;;;;;;;10.32;51.66;97178.06;4979760;28;6776;-73
2023/01/16 10:07:36;;;;;;;;;;;;;;;10.40;51.76;97161.00;4969386;28;6923;-73
2023/01/16 10:10:40;;;;;;;;;;;;;;;10.48;51.09;97157.59;4980379;28;6828;-73
2023/01/16 10:13:25;;;;;;;;;;;;;;;10.59;51.72;97148.16;4978086;28;7651;-73
2023/01/16 10:16:14;;;;;;;;;;;;;;;10.67;50.85;97138.72;4980821;28;6816;-73
2023/01/16 10:19:00;;;;;;;;;;;;;;;10.75;50.81;97132.72;4978624;28;6892;-73
2023/01/16 10:21:55;;;;;;;;;;;;;;;10.85;50.56;97126.69;4994851;28;6950;-73
2023/01/16 10:25:01;;;;;;;;;;;;;;;11.08;50.86;97123.13;4990657;28;8349;-73
2023/01/16 10:27:55;;;;;;;;;;;;;;;11.48;50.15;97122.81;4979930;28;6816;-73
2023/01/16 10:30:36;;;;;;;;;;;;;;;11.69;49.95;97104.69;4966785;28;6796;-73
2023/01/16 10:33:48;;;;;;;;;;;;;;;11.84;49.23;97102.00;4993551;28;6808;-73
2023/01/16 10:36:18;;;;;;;;;;;;;;;11.97;48.60;97089.88;4952128;28;6992;-73
2023/01/16 10:38:55;;;;;;;;;;;;;;;12.12;49.08;97083.78;4996113;28;6986;-73
2023/01/16 10:50:36;;;;;;;;;;;;;;;12.18;47.96;97044.34;4976378;28;6812;-74
2023/01/16 10:53:05;;;;;;;;;;;;;;;12.63;47.88;97034.31;4962738;28;6800;-73
2023/01/16 10:55:35;;;;;;;;;;;;;;;13.32;47.85;97022.94;4947947;28;6843;-74
2023/01/16 10:58:30;;;;;;;;;;;;;;;14.20;45.94;97023.06;4994470;28;6884;-73
2023/01/16 11:01:18;;;;;;;;;;;;;;;14.94;44.31;97019.75;4980664;28;6808;-74
2023/01/16 11:03:48;;;;;;;;;;;;;;;15.01;43.20;97018.72;4965688;28;6808;-74
2023/01/16 11:06:22;;;;;;;;;;;;;;;14.67;43.01;97010.03;4978247;28;6865;-74
2023/01/16 11:09:03;;;;;;;;;;;;;;;14.16;43.29;97008.53;4970405;28;7293;-73
2023/01/16 11:20:18;;;;;;;;;;;;;;;12.65;44.61;96980.34;4975955;28;6824;-73
2023/01/16 11:22:52;;;;;;;;;;;;;;;12.49;45.71;96972.00;4977049;28;6935;-74
2023/01/16 11:25:19;;;;;;;;;;;;;;;12.36;45.66;96967.06;4966239;28;6796;-73
2023/01/16 11:27:49;;;;;;;;;;;;;;;12.26;45.93;96950.06;4993163;28;6934;-73
2023/01/16 11:30:21;;;;;;;;;;;;;;;12.21;45.60;96952.69;4989531;28;6824;-73
2023/01/16 11:32:49;;;;;;;;;;;;;;;12.17;45.98;96948.50;4980382;28;6844;-73
2023/01/16 11:35:18;;;;;;;;;;;;;;;12.18;45.89;96949.34;4997367;28;6987;-73
2023/01/16 11:37:50;;;;;;;;;;;;;;;12.15;45.73;96937.41;4960058;28;7617;-73
2023/01/16 11:40:23;;;;;;;;;;;;;;;12.18;46.59;96933.94;4965964;28;6812;-73
2023/01/16 11:46:02;;;;;;;;;;;;;;;12.14;46.57;96922.00;4961605;28;7157;-73
2023/01/16 11:48:34;;;;;;;;;;;;;;;12.05;46.23;96926.41;4962116;28;7012;-74
2023/01/16 11:51:01;;;;;;;;;;;;;;;12.03;46.23;96915.31;4991460;28;7158;-73
2023/01/16 11:53:34;;;;;;;;;;;;;;;12.05;46.26;96902.47;4992489;28;7190;-73
2023/01/16 11:56:39;;;;;;;;;;;;;;;11.95;46.07;96894.84;4947887;28;7265;-73
2023/01/16 11:59:33;;;;;;;;;;;;;;;11.86;46.30;96881.28;4966325;28;7887;-73
2023/01/16 12:02:18;;;;;;;;;;;;;;;11.85;46.13;96884.72;4982070;28;6928;-73
2023/01/16 12:08:34;;;;;;;;;;;;;;;11.87;46.42;96852.19;4974296;28;6804;-73
2023/01/16 12:11:11;;;;;;;;;;;;;;;11.85;47.05;96859.06;4971424;28;7027;-73
2023/01/16 12:17:30;;;;;;;;;;;;;;;11.87;46.48;96841.94;4990559;28;6813;-73
2023/01/16 12:20:18;;;;;;;;;;;;;;;11.77;46.99;96839.50;4963930;28;7011;-73
2023/01/16 12:23:15;;;;;;;;;;;;;;;11.77;46.90;96833.53;4970225;28;6826;-74
2023/01/16 12:26:01;;;;;;;;;;;;;;;11.76;46.91;96824.97;4964169;28;6792;-73
2023/01/16 12:29:17;;;;;;;;;;;;;;;11.72;46.85;96831.03;4991347;28;6803;-73
2023/01/16 12:32:40;;;;;;;;;;;;;;;11.71;46.90;96831.03;4938554;28;7004;-74
2023/01/16 12:35:30;;;;;;;;;;;;;;;11.65;47.14;96817.44;4886886;29;7043;-73
2023/01/16 12:38:17;;;;;;;;;;;;;;;11.56;47.27;96802.19;4966795;28;6965;-73
2023/01/16 12:44:28;;;;;;;;;;;;;;;11.34;47.24;96792.19;4971135;28;6808;-74
2023/01/16 12:47:23;;;;;;;;;;;;;;;11.24;47.65;96783.78;4987224;28;6820;-72
2023/01/16 12:50:20;;;;;;;;;;;;;;;11.21;47.71;96781.28;4976505;28;7141;-73
2023/01/16 12:53:19;;;;;;;;;;;;;;;11.25;47.91;96776.94;4990552;28;6804;-74
2023/01/16 12:56:17;;;;;;;;;;;;;;;11.30;47.92;96764.06;4973608;28;7008;-73
2023/01/16 12:58:54;;;;;;;;;;;;;;;11.36;47.93;96763.97;4973987;28;6963;-74
2023/01/16 13:01:27;;;;;;;;;;;;;;;11.43;48.00;96757.06;4960806;28;7011;-73
2023/01/16 13:04:12;;;;;;;;;;;;;;;11.53;47.80;96748.34;4964778;28;6784;-73
2023/01/16 13:06:55;;;;;;;;;;;;;;;11.58;47.88;96744.03;4974887;28;6820;-73
2023/01/16 13:09:44;;;;;;;;;;;;;;;11.64;47.67;96737.94;4964824;28;6804;-74
2023/01/16 13:15:26;;;;;;;;;;;;;;;11.65;47.39;96730.25;4964904;28;6804;-73
2023/01/16 13:18:10;;;;;;;;;;;;;;;11.64;47.09;96736.25;4961422;28;7153;-73
2023/01/16 13:20:38;;;;;;;;;;;;;;;11.60;47.36;96734.56;4978781;28;7173;-73
2023/01/16 13:23:26;;;;;;;;;;;;;;;11.61;47.57;96723.44;4973818;28;6951;-73
2023/01/16 13:26:02;;;;;;;;;;;;;;;11.59;47.42;96714.94;4975587;28;7003;-73
2023/01/16 13:28:55;;;;;;;;;;;;;;;11.58;47.05;96715.81;4979727;28;6955;-73
2023/01/16 13:31:54;;;;;;;;;;;;;;;11.50;47.70;96718.50;4963643;28;7038;-73
2023/01/16 13:34:32;;;;;;;;;;;;;;;11.42;47.32;96711.78;4977899;28;6808;-73
2023/01/16 13:37:26;;;;;;;;;;;;;;;11.33;47.46;96702.50;4970168;28;7874;-73
2023/01/16 13:40:11;;;;;;;;;;;;;;;11.19;47.45;96715.50;4962918;28;7067;-73
2023/01/16 13:42:50;;;;;;;;;;;;;;;11.04;48.29;96711.44;4977735;28;7062;-73
2023/01/16 13:45:50;;;;;;;;;;;;;;;10.90;48.94;96701.38;4973719;28;6931;-73
2023/01/16 13:48:31;;;;;;;;;;;;;;;10.73;49.34;96712.66;4975568;28;6820;-73
2023/01/16 13:51:02;;;;;;;;;;;;;;;10.63;49.50;96696.56;4975283;28;7014;-74
2023/01/16 13:53:31;;;;;;;;;;;;;;;10.56;49.64;96711.13;4965122;28;6998;-75
2023/01/16 13:56:14;;;;;;;;;;;;;;;10.53;49.48;96700.09;4989750;28;7010;-73
2023/01/16 13:58:45;;;;;;;;;;;;;;;10.48;50.07;96699.28;4975703;28;6816;-73
2023/01/16 14:01:53;;;;;;;;;;;;;;;10.51;49.89;96706.94;4940183;28;7436;-73
2023/01/16 14:04:18;;;;;;;;;;;;;;;10.49;50.14;96696.72;4953094;28;7260;-73
2023/01/16 14:10:07;;;;;;;;;;;;;;;10.47;50.12;96695.88;4967609;28;7110;-74
2023/01/16 14:12:35;;;;;;;;;;;;;;;10.40;50.15;96694.25;4973501;28;7813;-73
2023/01/16 14:18:19;;;;;;;;;;;;;;;10.25;51.59;96690.13;4958946;28;6812;-74
2023/01/16 14:20:47;;;;;;;;;;;;;;;10.14;51.81;96688.53;4958847;28;7260;-73
2023/01/16 14:26:33;;;;;;;;;;;;;;;9.95;52.53;96682.72;4947901;28;6816;-73
2023/01/16 14:29:04;;;;;;;;;;;;;;;9.91;52.06;96680.22;4959224;28;7063;-73
2023/01/16 14:31:52;;;;;;;;;;;;;;;9.87;53.31;96684.50;4959510;28;6995;-73
2023/01/16 14:34:27;;;;;;;;;;;;;;;9.82;52.88;96681.16;4992886;28;6892;-73
2023/01/16 14:37:04;;;;;;;;;;;;;;;9.79;53.00;96681.16;4956685;28;8549;-73
2023/01/16 14:39:36;;;;;;;;;;;;;;;9.75;53.37;96682.88;4962589;28;6968;-74
2023/01/16 14:57:26;;;;;;;;;;;;;;;9.56;54.87;96674.53;4974543;28;6857;-74
2023/01/16 15:00:09;;;;;;;;;;;;;;;9.59;54.88;96677.91;4965781;28;6808;-73
2023/01/16 15:02:46;;;;;;;;;;;;;;;9.65;54.61;96671.03;4963455;28;12438;-74
2023/01/16 15:05:51;;;;;;;;;;;;;;;9.68;54.85;96666.75;4968704;28;6846;-74
2023/01/16 15:08:47;;;;;;;;;;;;;;;9.75;55.44;96664.16;4989149;28;6816;-74
2023/01/16 15:11:33;;;;;;;;;;;;;;;9.79;54.99;96655.59;4942486;28;7909;-74
2023/01/16 15:14:26;;;;;;;;;;;;;;;9.82;54.98;96658.97;4984208;28;7228;-74
2023/01/16 15:22:57;;;;;;;;;;;;;;;9.92;54.95;96671.66;4975146;28;6944;-74